Time;durP1;ratioP1;P1;durP2;ratioP2;P2;SDS_P1;SDS_P2;PMS_P1;PMS_P2;Temp;Humidity;BMP_temperature;BMP_pressure;BME280_temperature;BME280_humidity;BME280_pressure;Samples;Min_cycle;Max_cycle;Signal;HPM_P1;HPM_P2
2022/03/06 00:00:32;;;;;;;;;82.25;58.00;;;;;9.95;62.35;101521.97;5095165;27;45442;-76
2022/03/06 00:02:57;;;;;;;;;86.00;61.50;;;;;10.04;62.89;101553.44;5094670;27;45992;-81
2022/03/06 00:05:22;;;;;;;;;79.00;58.50;;;;;10.00;62.95;101551.47;5094858;27;45405;-80
2022/03/06 00:07:48;;;;;;;;;78.25;59.00;;;;;9.71;63.16;101501.38;5094695;27;46027;-71
2022/03/06 00:10:13;;;;;;;;;80.50;60.50;;;;;9.82;62.94;101520.53;5094937;27;45312;-75
2022/03/06 00:12:39;;;;;;;;;82.00;64.00;;;;;9.83;62.43;101540.13;5094201;27;46314;-81
2022/03/06 00:15:05;;;;;;;;;80.75;54.00;;;;;9.74;62.74;101524.63;5094278;27;45478;-77
2022/03/06 00:17:30;;;;;;;;;79.50;59.00;;;;;9.88;62.09;101558.16;5094259;27;45295;-80
2022/03/06 00:19:56;;;;;;;;;81.50;60.25;;;;;9.89;62.10;101556.38;5094982;27;45496;-79
2022/03/06 00:22:21;;;;;;;;;83.00;61.00;;;;;9.85;62.52;101552.69;5095447;27;45265;-80
2022/03/06 00:24:46;;;;;;;;;78.00;57.50;;;;;9.58;62.24;101521.28;5095397;27;45525;-80
2022/03/06 00:27:12;;;;;;;;;70.75;55.50;;;;;9.77;61.54;101560.34;5095691;27;45472;-78
2022/03/06 00:29:37;;;;;;;;;75.25;54.50;;;;;9.74;61.30;101559.31;5094804;27;45326;-70
2022/03/06 00:32:04;;;;;;;;;81.25;56.25;;;;;9.59;61.99;101535.56;5088739;27;48186;-77
2022/03/06 00:34:29;;;;;;;;;75.50;56.25;;;;;9.58;62.12;101545.31;5093745;27;45298;-80
2022/03/06 00:36:54;;;;;;;;;78.25;58.25;;;;;9.72;61.82;101561.91;5109035;27;45474;-78
2022/03/06 00:39:20;;;;;;;;;71.50;54.75;;;;;9.64;61.09;101555.34;5113717;27;45452;-81
2022/03/06 00:41:45;;;;;;;;;78.25;57.75;;;;;9.67;61.54;101560.81;5106141;27;45482;-77
2022/03/06 00:44:10;;;;;;;;;81.25;57.75;;;;;9.51;60.58;101547.66;5107479;27;45499;-76
2022/03/06 00:46:36;;;;;;;;;81.50;58.50;;;;;9.44;60.45;101534.88;5113413;27;45711;-79
2022/03/06 00:49:02;;;;;;;;;79.25;55.50;;;;;9.44;60.88;101522.47;5113911;27;45506;-78
2022/03/06 00:51:28;;;;;;;;;71.75;56.00;;;;;9.61;60.35;101555.22;5100408;27;45460;-82
2022/03/06 00:53:53;;;;;;;;;78.50;57.25;;;;;9.35;59.79;101511.41;5093912;27;45361;-79
2022/03/06 00:56:19;;;;;;;;;76.75;56.00;;;;;9.41;60.35;101528.56;5093734;27;45586;-76
2022/03/06 00:58:44;;;;;;;;;79.00;54.75;;;;;9.54;59.41;101550.47;5094333;27;45331;-80
2022/03/06 01:01:09;;;;;;;;;70.25;52.25;;;;;9.26;59.58;101513.69;5093763;27;45408;-80
2022/03/06 01:03:35;;;;;;;;;76.75;57.75;;;;;9.46;59.71;101560.78;5096187;27;46369;-82
2022/03/06 01:06:00;;;;;;;;;73.25;54.50;;;;;9.38;59.12;101554.22;5099898;27;45453;-80
2022/03/06 01:08:26;;;;;;;;;73.50;53.25;;;;;9.19;59.42;101537.41;5097663;27;45329;-80
2022/03/06 01:10:52;;;;;;;;;72.50;53.50;;;;;9.29;58.83;101548.44;5096907;27;46253;-80
2022/03/06 01:13:20;;;;;;;;;69.75;54.00;;;;;9.35;59.16;101570.06;5097274;27;45335;-81
2022/03/06 01:15:45;;;;;;;;;71.50;55.75;;;;;9.30;57.57;101568.94;5097277;27;45401;-77
2022/03/06 01:18:11;;;;;;;;;73.25;53.75;;;;;9.23;57.54;101578.44;5097774;27;45437;-81
2022/03/06 01:20:38;;;;;;;;;70.50;52.25;;;;;9.16;57.61;101576.34;5097141;27;45944;-78
2022/03/06 01:23:05;;;;;;;;;69.75;53.25;;;;;9.16;57.89;101576.34;5097041;27;45519;-77
2022/03/06 01:25:32;;;;;;;;;70.00;51.75;;;;;9.01;57.65;101541.91;5097252;27;45490;-80
2022/03/06 01:27:57;;;;;;;;;69.25;50.25;;;;;8.66;57.71;101494.16;5097519;27;45491;-81
2022/03/06 01:30:23;;;;;;;;;75.25;54.50;;;;;8.93;57.84;101536.22;5098973;27;46016;-76
2022/03/06 01:32:52;;;;;;;;;76.75;58.00;;;;;8.56;57.62;101478.56;5116993;27;45477;-82
2022/03/06 01:35:18;;;;;;;;;75.00;57.00;;;;;8.63;56.55;101496.66;5117878;27;45677;-79
2022/03/06 01:37:45;;;;;;;;;81.25;57.00;;;;;8.98;56.81;101568.41;5118553;27;45331;-83
2022/03/06 01:40:12;;;;;;;;;73.75;55.50;;;;;8.28;57.02;101450.63;5117734;27;45488;-79
2022/03/06 01:42:43;;;;;;;;;72.50;52.25;;;;;8.58;56.32;101505.28;5117268;27;46044;-78
2022/03/06 01:45:09;;;;;;;;;76.75;53.00;;;;;8.87;57.13;101575.91;5117400;27;45392;-79
2022/03/06 01:47:47;;;;;;;;;70.50;53.00;;;;;7.88;56.34;101408.81;5117341;27;45486;-81
2022/03/06 01:50:22;;;;;;;;;73.75;54.75;;;;;7.99;56.39;101449.25;5116998;27;46358;-71
2022/03/06 01:52:50;;;;;;;;;75.50;55.75;;;;;8.66;56.19;101578.47;5117039;27;45394;-79
2022/03/06 01:55:17;;;;;;;;;72.50;53.50;;;;;8.25;56.30;101513.44;5116448;27;45496;-81
2022/03/06 01:57:43;;;;;;;;;73.25;53.75;;;;;8.50;56.21;101555.53;5116940;27;45535;-78
2022/03/06 02:00:20;;;;;;;;;69.75;54.25;;;;;8.62;56.30;101587.16;5084344;27;48208;-79
2022/03/06 02:02:46;;;;;;;;;66.50;52.00;;;;;8.60;55.90;101583.53;5116207;27;45334;-77
2022/03/06 02:05:12;;;;;;;;;73.00;53.25;;;;;8.61;55.62;101582.66;5116395;27;45461;-80
2022/03/06 02:07:37;;;;;;;;;64.50;52.00;;;;;8.63;56.09;101589.91;5116407;27;45438;-81
2022/03/06 02:10:04;;;;;;;;;73.25;53.00;;;;;8.44;55.80;101557.91;5115934;27;46102;-80
2022/03/06 02:12:31;;;;;;;;;70.50;52.00;;;;;8.61;56.06;101591.59;5081215;27;45402;-74
2022/03/06 02:14:59;;;;;;;;;70.25;49.50;;;;;8.35;55.35;101563.66;5112464;27;45516;-76
2022/03/06 02:17:25;;;;;;;;;64.25;51.75;;;;;8.34;54.68;101552.94;5116203;27;45369;-76
2022/03/06 02:19:57;;;;;;;;;71.00;49.50;;;;;8.29;55.03;101542.06;5097526;27;48100;-76
2022/03/06 02:22:27;;;;;;;;;67.50;52.00;;;;;8.44;55.53;101577.44;5115847;27;45458;-82
2022/03/06 02:24:53;;;;;;;;;67.75;50.75;;;;;8.48;55.24;101573.19;5115900;27;45397;-80
2022/03/06 02:27:19;;;;;;;;;65.50;52.75;;;;;8.45;55.29;101559.72;5113240;27;45474;-81
2022/03/06 02:29:45;;;;;;;;;72.25;53.75;;;;;8.49;55.15;101577.66;5096332;27;45452;-79
2022/03/06 02:32:14;;;;;;;;;67.25;51.25;;;;;8.43;56.00;101575.63;5096355;27;45543;-78
2022/03/06 02:34:43;;;;;;;;;74.00;53.00;;;;;8.43;55.98;101575.63;5091045;27;45383;-81
2022/03/06 02:37:09;;;;;;;;;68.50;51.50;;;;;8.14;55.78;101528.00;5096201;27;45460;-81
2022/03/06 02:39:35;;;;;;;;;65.50;51.75;;;;;8.34;55.23;101569.81;5095686;27;46298;-80
2022/03/06 02:42:01;;;;;;;;;73.75;51.75;;;;;8.14;56.01;101543.97;5105519;27;45378;-77
2022/03/06 02:44:27;;;;;;;;;69.75;52.50;;;;;8.35;55.69;101566.31;5097651;27;45427;-80
2022/03/06 02:46:53;;;;;;;;;65.75;53.00;;;;;8.34;54.80;101569.81;5116732;27;45383;-80
2022/03/06 02:49:19;;;;;;;;;68.25;51.75;;;;;8.32;55.76;101573.25;5117301;27;46433;-78
2022/03/06 02:51:45;;;;;;;;;66.50;52.50;;;;;8.14;54.76;101549.31;5117228;27;45578;-79
2022/03/06 02:54:12;;;;;;;;;67.25;49.25;;;;;8.22;55.00;101570.13;5116321;27;45497;-73
2022/03/06 02:56:38;;;;;;;;;71.00;50.50;;;;;8.18;55.35;101572.56;5115834;27;45519;-82
2022/03/06 02:59:04;;;;;;;;;70.75;53.00;;;;;8.10;55.88;101564.19;5115690;27;46140;-79
2022/03/06 03:01:30;;;;;;;;;64.75;49.00;;;;;8.17;55.12;101576.09;5115547;27;45354;-81
2022/03/06 03:03:55;;;;;;;;;66.75;52.50;;;;;7.90;55.50;101531.28;5115377;27;45372;-80
2022/03/06 03:06:21;;;;;;;;;68.50;49.50;;;;;8.16;54.92;101576.91;5115789;27;45460;-80
2022/03/06 03:08:47;;;;;;;;;69.75;53.25;;;;;8.11;55.22;101571.34;5115444;27;46146;-74
2022/03/06 03:11:13;;;;;;;;;67.25;52.00;;;;;7.81;54.70;101529.06;5115592;27;45462;-80
2022/03/06 03:13:38;;;;;;;;;63.75;49.00;;;;;7.79;55.25;101536.06;5115815;27;45417;-81
2022/03/06 03:16:05;;;;;;;;;61.25;49.50;;;;;7.73;54.92;101535.75;5097394;27;45498;-81
2022/03/06 03:18:30;;;;;;;;;62.75;49.50;;;;;7.93;54.91;101574.91;5115170;27;46652;-78
2022/03/06 03:20:55;;;;;;;;;61.50;46.75;;;;;7.63;54.79;101534.38;5115629;27;45262;-78
2022/03/06 03:23:21;;;;;;;;;61.50;49.50;;;;;7.79;55.45;101562.69;5115096;27;45540;-79
2022/03/06 03:25:47;;;;;;;;;67.50;51.75;;;;;7.55;55.68;101557.00;5114532;27;45342;-79
2022/03/06 03:28:12;;;;;;;;;70.00;53.75;;;;;7.63;55.17;101557.41;5114741;27;45358;-80
2022/03/06 03:30:37;;;;;;;;;71.50;51.75;;;;;7.29;55.16;101506.06;5115001;27;45321;-80
2022/03/06 03:33:03;;;;;;;;;70.50;51.75;;;;;7.52;55.60;101557.78;5115087;27;45310;-81
2022/03/06 03:35:29;;;;;;;;;71.25;51.25;;;;;7.23;55.60;101521.69;5083867;27;45507;-79
2022/03/06 03:37:54;;;;;;;;;66.00;50.75;;;;;7.53;56.07;101580.84;5114719;27;46094;-81
2022/03/06 03:40:19;;;;;;;;;63.75;50.25;;;;;7.51;55.94;101573.66;5114925;27;45441;-76
2022/03/06 03:42:45;;;;;;;;;68.50;52.25;;;;;7.57;56.26;101582.84;5115003;27;45665;-78
2022/03/06 03:45:10;;;;;;;;;71.50;53.75;;;;;7.56;55.55;101580.13;5114942;27;45426;-76
2022/03/06 03:47:36;;;;;;;;;75.50;53.50;;;;;7.57;55.71;101589.91;5114548;27;45521;-77
2022/03/06 03:50:03;;;;;;;;;63.75;51.00;;;;;7.56;55.50;101594.31;5114937;27;45360;-79
2022/03/06 03:52:28;;;;;;;;;68.25;49.75;;;;;7.37;55.80;101567.59;5115119;27;45288;-79
2022/03/06 03:54:54;;;;;;;;;70.75;51.25;;;;;7.32;55.99;101577.97;5096455;27;45600;-74
2022/03/06 03:57:19;;;;;;;;;70.50;53.25;;;;;7.47;55.71;101608.88;5115016;27;46484;-72
2022/03/06 03:59:44;;;;;;;;;76.75;54.00;;;;;7.45;56.13;101599.91;5116095;27;45436;-76
2022/03/06 04:02:10;;;;;;;;;69.50;53.50;;;;;7.45;56.28;101606.13;5116598;27;45428;-78
2022/03/06 04:04:35;;;;;;;;;73.75;55.25;;;;;7.23;55.98;101576.59;5115673;27;45330;-78
2022/03/06 04:07:01;;;;;;;;;65.75;52.50;;;;;7.37;56.30;101612.78;5096588;27;48104;-80
2022/03/06 04:09:26;;;;;;;;;68.00;52.75;;;;;7.38;55.88;101609.31;5114808;27;45468;-78
2022/03/06 04:11:52;;;;;;;;;68.50;51.25;;;;;7.39;56.25;101613.75;5114758;27;45800;-78
2022/03/06 04:14:17;;;;;;;;;67.00;51.00;;;;;7.26;56.13;101605.97;5114835;27;45438;-79
2022/03/06 04:16:43;;;;;;;;;74.00;55.75;;;;;7.30;56.43;101607.97;5114462;27;45428;-78
2022/03/06 04:19:09;;;;;;;;;61.00;47.25;;;;;7.16;56.27;101602.84;5114677;27;45384;-80
2022/03/06 04:21:35;;;;;;;;;77.50;54.00;;;;;6.70;56.40;101523.31;5114694;27;45447;-80
2022/03/06 04:24:01;;;;;;;;;73.00;53.75;;;;;7.19;56.64;101624.28;5114677;27;45440;-79
2022/03/06 04:26:26;;;;;;;;;69.25;54.00;;;;;7.20;56.90;101611.88;5113987;27;45499;-76
2022/03/06 04:28:51;;;;;;;;;71.75;53.25;;;;;7.04;56.47;101590.63;5082427;27;45380;-79
2022/03/06 04:31:16;;;;;;;;;73.50;54.25;;;;;7.02;56.84;101606.50;5114525;27;45295;-77
2022/03/06 04:33:42;;;;;;;;;66.00;50.25;;;;;6.99;56.90;101596.59;5114341;27;45405;-81
2022/03/06 04:36:08;;;;;;;;;72.25;52.25;;;;;6.91;57.33;101594.34;5113698;27;45537;-80
2022/03/06 04:38:34;;;;;;;;;67.25;55.25;;;;;7.11;57.15;101627.31;5114581;27;45577;-81
2022/03/06 04:40:59;;;;;;;;;73.00;54.00;;;;;7.03;57.16;101612.69;5117356;27;45456;-80
2022/03/06 04:43:25;;;;;;;;;78.50;55.25;;;;;6.93;56.93;101601.59;5117934;27;45476;-80
2022/03/06 04:45:51;;;;;;;;;69.50;52.25;;;;;6.54;56.84;101544.53;5117257;27;46447;-69
2022/03/06 04:48:16;;;;;;;;;78.00;60.75;;;;;7.01;57.00;101621.53;5117456;27;45350;-72
2022/03/06 04:50:41;;;;;;;;;67.50;49.00;;;;;6.93;57.07;101600.66;5117831;27;45939;-75
2022/03/06 04:53:07;;;;;;;;;66.25;51.25;;;;;7.04;56.99;101634.03;5117835;27;45472;-80
2022/03/06 04:55:32;;;;;;;;;73.50;54.50;;;;;6.80;56.98;101589.38;5117035;27;45542;-79
2022/03/06 04:57:58;;;;;;;;;71.25;53.75;;;;;6.99;57.15;101646.16;5117447;27;45318;-77
2022/03/06 05:00:23;;;;;;;;;73.75;55.00;;;;;6.86;57.38;101630.38;5117489;27;45498;-75
2022/03/06 05:02:48;;;;;;;;;71.00;52.00;;;;;6.89;57.64;101649.16;5118411;27;45697;-77
2022/03/06 05:05:14;;;;;;;;;72.75;51.00;;;;;6.48;57.51;101574.28;5117340;27;47107;-75
2022/03/06 05:07:39;;;;;;;;;74.25;50.50;;;;;6.77;57.84;101626.38;5117433;27;45421;-79
2022/03/06 05:10:12;;;;;;;;;71.75;54.00;;;;;6.81;58.03;101632.78;5118188;27;45580;-81
2022/03/06 05:12:40;;;;;;;;;69.75;54.50;;;;;6.63;57.91;101612.34;5118468;27;45390;-80
2022/03/06 05:15:07;;;;;;;;;69.50;48.00;;;;;6.79;57.67;101645.06;5117824;27;45417;-79
2022/03/06 05:17:32;;;;;;;;;73.75;54.00;;;;;6.78;57.86;101640.56;5116732;27;46013;-80
2022/03/06 05:19:57;;;;;;;;;75.25;55.25;;;;;6.68;58.22;101633.81;5081966;27;45839;-80
2022/03/06 05:22:23;;;;;;;;;65.50;52.25;;;;;6.67;57.91;101632.00;5114885;27;45582;-80
2022/03/06 05:24:48;;;;;;;;;63.50;48.50;;;;;6.20;57.95;101562.16;5116985;27;46310;-81
2022/03/06 05:27:13;;;;;;;;;70.00;53.50;;;;;6.68;57.97;101631.16;5099027;27;45647;-80
2022/03/06 05:29:39;;;;;;;;;75.50;54.50;;;;;6.56;57.77;101622.53;5116975;27;45608;-82
2022/03/06 05:32:05;;;;;;;;;66.25;50.50;;;;;6.62;57.77;101639.72;5116863;27;45364;-80
2022/03/06 05:34:31;;;;;;;;;66.50;51.75;;;;;6.58;58.23;101640.38;5116416;27;45474;-78
2022/03/06 05:36:56;;;;;;;;;71.25;54.00;;;;;6.74;57.85;101655.41;5102261;27;45425;-79
2022/03/06 05:39:22;;;;;;;;;80.00;62.50;;;;;6.55;58.31;101620.69;5097305;27;45318;-80
2022/03/06 05:41:47;;;;;;;;;67.75;52.75;;;;;6.63;57.48;101644.22;5097027;27;45462;-79
2022/03/06 05:44:13;;;;;;;;;58.00;48.75;;;;;6.69;57.96;101658.66;5096527;27;46359;-81
2022/03/06 05:46:38;;;;;;;;;67.75;51.75;;;;;6.61;57.95;101655.56;5091409;27;45347;-80
2022/03/06 05:49:12;;;;;;;;;70.00;52.75;;;;;6.70;57.84;101663.13;5096262;27;45515;-81
2022/03/06 05:51:38;;;;;;;;;72.00;49.50;;;;;6.39;57.86;101616.25;5110612;27;46347;-81
2022/03/06 05:54:03;;;;;;;;;69.50;52.25;;;;;6.64;57.92;101669.91;5116787;27;45374;-75
2022/03/06 05:56:29;;;;;;;;;71.50;51.25;;;;;6.39;58.33;101622.47;5103247;27;45448;-78
2022/03/06 05:58:54;;;;;;;;;73.00;52.00;;;;;6.36;57.85;101617.00;5096465;27;45469;-80
2022/03/06 06:01:19;;;;;;;;;58.50;49.25;;;;;6.16;57.98;101584.00;5096831;27;46008;-79
2022/03/06 06:03:45;;;;;;;;;73.50;52.75;;;;;6.19;57.79;101608.06;5096427;27;46131;-80
2022/03/06 06:06:10;;;;;;;;;71.25;53.50;;;;;6.51;58.37;101674.44;5096367;27;45365;-81
2022/03/06 06:08:35;;;;;;;;;63.00;51.50;;;;;6.24;58.22;101637.53;5096481;27;45340;-79
2022/03/06 06:11:01;;;;;;;;;59.75;43.00;;;;;6.42;58.44;101678.41;5096395;27;45587;-81
2022/03/06 06:13:26;;;;;;;;;65.00;52.00;;;;;5.86;58.45;101581.38;5096530;27;46040;-75
2022/03/06 06:15:52;;;;;;;;;67.75;50.50;;;;;6.38;58.64;101684.34;5096283;27;45602;-80
2022/03/06 06:18:18;;;;;;;;;68.50;51.00;;;;;6.38;58.51;101684.34;5096738;27;45456;-81
2022/03/06 06:20:43;;;;;;;;;69.75;54.50;;;;;6.39;58.70;101686.19;5098252;27;45713;-81
2022/03/06 06:23:09;;;;;;;;;74.00;55.50;;;;;6.42;58.48;101690.78;5079730;27;47809;-78
2022/03/06 06:25:34;;;;;;;;;74.50;53.00;;;;;6.33;58.54;101674.28;5097941;27;45412;-80
2022/03/06 06:28:00;;;;;;;;;68.25;53.50;;;;;6.44;58.61;101686.47;5091259;27;45474;-75
2022/03/06 06:30:26;;;;;;;;;83.75;58.00;;;;;5.90;58.32;101601.00;5096544;27;45585;-76
2022/03/06 06:32:51;;;;;;;;;78.00;55.25;;;;;6.39;58.79;101695.91;5095936;27;45510;-81
2022/03/06 06:35:16;;;;;;;;;69.25;52.25;;;;;6.00;58.53;101627.28;5095731;27;45407;-80
2022/03/06 06:37:42;;;;;;;;;72.50;53.75;;;;;6.39;58.52;101691.50;5103168;27;45532;-77
2022/03/06 06:40:07;;;;;;;;;69.00;53.00;;;;;6.33;58.86;101674.28;5115689;27;45566;-78
2022/03/06 06:42:33;;;;;;;;;77.50;55.50;;;;;6.47;58.26;101705.22;5115658;27;45465;-80
2022/03/06 06:44:58;;;;;;;;;74.00;54.25;;;;;6.49;58.17;101700.91;5115490;27;45443;-78
2022/03/06 06:47:23;;;;;;;;;74.25;56.25;;;;;6.53;58.06;101704.66;5077922;27;45347;-82
2022/03/06 06:49:49;;;;;;;;;77.00;56.75;;;;;6.51;57.89;101706.31;5115052;27;45640;-80
2022/03/06 06:52:14;;;;;;;;;74.25;53.25;;;;;6.44;57.70;101697.06;5115487;27;46089;-80
2022/03/06 06:54:39;;;;;;;;;76.50;56.50;;;;;6.28;58.23;101682.88;5115241;27;45550;-79
2022/03/06 06:57:05;;;;;;;;;68.50;54.50;;;;;6.46;58.05;101704.28;5115791;27;45573;-71
2022/03/06 06:59:30;;;;;;;;;72.50;55.25;;;;;6.45;57.91;101706.84;5115555;27;45381;-75
2022/03/06 07:01:55;;;;;;;;;60.00;50.00;;;;;6.51;57.71;101725.78;5115300;27;46395;-79
2022/03/06 07:04:21;;;;;;;;;80.50;54.75;;;;;6.50;57.92;101725.69;5115367;27;45451;-75
2022/03/06 07:06:46;;;;;;;;;72.00;54.25;;;;;6.30;57.66;101688.28;5115252;27;45315;-74
2022/03/06 07:09:12;;;;;;;;;76.25;55.00;;;;;6.54;57.65;101733.94;5112681;27;45579;-81
2022/03/06 07:11:37;;;;;;;;;77.50;56.75;;;;;6.49;58.04;101716.84;5097057;27;46182;-81
2022/03/06 07:14:02;;;;;;;;;80.25;61.25;;;;;6.33;57.45;101706.13;5114877;27;45483;-79
2022/03/06 07:16:28;;;;;;;;;76.50;54.75;;;;;6.39;57.77;101717.13;5115107;27;45420;-79
2022/03/06 07:18:54;;;;;;;;;73.00;52.25;;;;;6.18;57.74;101698.19;5115330;27;45397;-81
2022/03/06 07:21:19;;;;;;;;;73.50;54.75;;;;;6.36;57.62;101714.28;5100512;27;46005;-73
2022/03/06 07:23:44;;;;;;;;;68.50;51.25;;;;;6.50;57.18;101737.25;5090359;27;45597;-73
2022/03/06 07:26:10;;;;;;;;;78.25;55.00;;;;;6.29;57.43;101715.66;5095069;27;45532;-75
2022/03/06 07:28:35;;;;;;;;;74.25;53.00;;;;;6.19;57.49;101694.72;5095709;27;45352;-77
2022/03/06 07:31:01;;;;;;;;;74.75;55.50;;;;;6.45;57.60;101744.00;5096567;27;45994;-78
2022/03/06 07:33:26;;;;;;;;;75.25;55.00;;;;;6.32;57.20;101714.91;5098252;27;45337;-80
2022/03/06 07:35:51;;;;;;;;;76.50;55.50;;;;;6.25;56.74;101714.56;5099286;27;45321;-81
2022/03/06 07:38:17;;;;;;;;;71.00;54.25;;;;;6.41;57.21;101757.94;5098452;27;45534;-79
2022/03/06 07:40:42;;;;;;;;;81.50;55.25;;;;;6.34;57.25;101751.34;5108984;27;45235;-76
2022/03/06 07:43:07;;;;;;;;;73.75;53.75;;;;;6.22;57.36;101727.66;5114733;27;45529;-75
2022/03/06 07:45:33;;;;;;;;;77.75;56.00;;;;;6.13;57.01;101736.81;5114742;27;45279;-80
2022/03/06 07:47:58;;;;;;;;;77.75;53.50;;;;;5.80;56.96;101673.81;5114857;27;45432;-78
2022/03/06 07:50:24;;;;;;;;;77.75;55.25;;;;;5.61;56.60;101632.03;5114347;27;45321;-81
2022/03/06 07:52:49;;;;;;;;;75.25;55.75;;;;;6.43;57.11;101772.22;5114410;27;45278;-76
2022/03/06 07:55:14;;;;;;;;;74.00;54.75;;;;;6.47;57.13;101768.94;5095761;27;45487;-81
2022/03/06 07:57:40;;;;;;;;;65.00;51.00;;;;;6.25;56.73;101729.56;5115088;27;45605;-79
2022/03/06 08:00:10;;;;;;;;;80.25;58.50;;;;;6.44;56.91;101763.44;5114215;27;46195;-80
2022/03/06 08:02:38;;;;;;;;;76.00;55.25;;;;;6.48;56.32;101780.44;5105368;27;45489;-80
2022/03/06 08:05:05;;;;;;;;;72.50;53.75;;;;;6.41;56.53;101773.88;5094677;27;45516;-78
2022/03/06 08:07:31;;;;;;;;;73.25;54.50;;;;;6.19;56.68;101748.69;5094918;27;45405;-80
2022/03/06 08:09:56;;;;;;;;;73.25;55.50;;;;;6.31;56.57;101771.50;5094211;27;45422;-81
2022/03/06 08:12:24;;;;;;;;;73.25;57.25;;;;;6.14;57.04;101762.50;5090527;27;45516;-78
2022/03/06 08:14:51;;;;;;;;;73.75;55.75;;;;;6.11;56.77;101767.63;5098422;27;45387;-78
2022/03/06 08:17:17;;;;;;;;;70.50;53.75;;;;;6.19;56.99;101761.06;5098564;27;45354;-81
2022/03/06 08:19:42;;;;;;;;;74.75;55.25;;;;;6.34;56.58;101787.59;5097990;27;45871;-77
2022/03/06 08:22:08;;;;;;;;;74.25;54.25;;;;;6.07;56.35;101767.44;5097923;27;45450;-80
2022/03/06 08:24:33;;;;;;;;;73.50;51.75;;;;;6.39;56.63;101794.09;5105019;27;45526;-79
2022/03/06 08:26:59;;;;;;;;;64.75;50.00;;;;;6.44;56.85;101796.19;5119124;27;45658;-80
2022/03/06 08:29:24;;;;;;;;;76.50;55.00;;;;;6.57;55.90;101796.94;5117893;27;46639;-76
2022/03/06 08:31:50;;;;;;;;;75.25;55.50;;;;;6.29;55.27;101763.44;5117901;27;45331;-78
2022/03/06 08:34:15;;;;;;;;;74.75;55.00;;;;;6.01;55.45;101705.16;5118088;27;45324;-80
2022/03/06 08:36:40;;;;;;;;;71.75;53.50;;;;;6.61;55.60;101817.53;5117471;27;45251;-76
2022/03/06 08:39:06;;;;;;;;;67.00;52.25;;;;;6.70;55.71;101815.44;5117559;27;46107;-80
2022/03/06 08:41:32;;;;;;;;;74.25;54.00;;;;;6.76;55.00;101817.50;5087001;27;45400;-81
2022/03/06 08:43:57;;;;;;;;;68.50;51.00;;;;;6.50;54.77;101746.94;5102330;27;45369;-80
2022/03/06 08:46:22;;;;;;;;;60.50;49.00;;;;;6.91;54.13;101825.47;5097133;27;45452;-79
2022/03/06 08:48:48;;;;;;;;;61.75;47.25;;;;;6.96;53.34;101816.03;5100935;27;46150;-79
2022/03/06 08:51:14;;;;;;;;;66.50;51.50;;;;;6.74;54.22;101769.63;5100782;27;45533;-76
2022/03/06 08:53:40;;;;;;;;;66.50;46.75;;;;;6.97;52.93;101805.47;5114628;27;45376;-77
2022/03/06 08:56:06;;;;;;;;;67.75;52.50;;;;;6.96;52.94;101797.44;5098121;27;45520;-81
2022/03/06 08:58:31;;;;;;;;;67.00;53.75;;;;;7.12;52.82;101817.84;5097520;27;45979;-78
2022/03/06 09:00:57;;;;;;;;;75.50;56.50;;;;;7.19;53.02;101818.28;5106405;27;45415;-82
2022/03/06 09:03:22;;;;;;;;;69.00;51.25;;;;;7.29;52.73;101821.44;5118258;27;45331;-78
2022/03/06 09:05:48;;;;;;;;;66.00;52.75;;;;;7.36;52.62;101828.97;5085377;27;45379;-81
2022/03/06 09:08:13;;;;;;;;;68.00;52.25;;;;;7.32;52.31;101808.34;5116684;27;46086;-82
2022/03/06 09:10:40;;;;;;;;;62.75;46.50;;;;;7.41;51.62;101848.75;5116598;27;45448;-82
2022/03/06 09:13:07;;;;;;;;;70.75;54.00;;;;;7.14;51.74;101756.00;5117099;27;45471;-79
2022/03/06 09:15:33;;;;;;;;;73.75;53.50;;;;;7.56;51.58;101822.09;5117198;27;45418;-81
2022/03/06 09:17:59;;;;;;;;;67.00;52.00;;;;;7.60;50.98;101817.88;5116811;27;45504;-81
2022/03/06 09:20:25;;;;;;;;;62.75;48.75;;;;;7.51;50.41;101803.22;5117601;27;45534;-81
2022/03/06 09:22:51;;;;;;;;;63.75;51.25;;;;;7.71;50.56;101836.25;5104032;27;45332;-79
2022/03/06 09:25:16;;;;;;;;;62.50;48.25;;;;;7.60;50.18;101799.25;5096710;27;45379;-79
2022/03/06 09:27:42;;;;;;;;;59.50;47.00;;;;;7.77;50.76;101814.41;5097043;27;45502;-77
2022/03/06 09:30:08;;;;;;;;;65.75;48.25;;;;;7.75;48.69;101800.09;5098850;27;45521;-78
2022/03/06 09:32:35;;;;;;;;;65.25;49.50;;;;;7.95;48.32;101827.75;5099850;27;45400;-79
2022/03/06 09:35:03;;;;;;;;;60.50;46.75;;;;;7.94;48.24;101824.19;5097393;27;45500;-78
2022/03/06 09:37:29;;;;;;;;;62.50;45.50;;;;;8.07;47.68;101823.13;5097352;27;45372;-75
2022/03/06 09:39:54;;;;;;;;;62.75;47.75;;;;;8.04;47.62;101804.31;5096795;27;45393;-80
2022/03/06 09:42:21;;;;;;;;;53.50;39.50;;;;;8.08;47.96;101792.09;5097075;27;45338;-78
2022/03/06 09:44:48;;;;;;;;;59.50;43.00;;;;;8.32;45.74;101847.50;5097284;27;45335;-82
2022/03/06 09:47:14;;;;;;;;;45.75;34.50;;;;;8.38;45.80;101838.09;5096505;27;45462;-81
2022/03/06 09:49:43;;;;;;;;;58.50;44.50;;;;;8.46;45.62;101842.09;5096772;27;45368;-78
2022/03/06 09:52:09;;;;;;;;;57.75;44.25;;;;;8.43;45.03;101825.94;5096665;27;45545;-79
2022/03/06 09:54:35;;;;;;;;;59.25;41.75;;;;;8.58;43.59;101844.47;5096583;27;45552;-76
2022/03/06 09:57:00;;;;;;;;;56.75;44.75;;;;;8.42;44.92;101821.41;5096113;27;46520;-75
2022/03/06 09:59:26;;;;;;;;;56.75;39.50;;;;;8.56;43.85;101805.28;5096197;27;45836;-76
2022/03/06 10:01:52;;;;;;;;;48.75;40.50;;;;;8.66;42.34;101808.50;5105825;27;45665;-77
2022/03/06 10:04:23;;;;;;;;;58.00;40.25;;;;;9.00;41.95;101843.94;5116733;27;45611;-78
2022/03/06 10:06:58;;;;;;;;;60.00;40.00;;;;;9.12;41.79;101840.97;5115916;27;46027;-72
2022/03/06 10:09:24;;;;;;;;;58.50;41.25;;;;;8.99;42.29;101805.72;5112663;27;45509;-70
2022/03/06 10:11:52;;;;;;;;;52.50;42.25;;;;;9.20;41.45;101835.16;5096321;27;45410;-74
2022/03/06 10:14:33;;;;;;;;;47.00;34.50;;;;;9.30;40.88;101843.63;5096610;27;45479;-79
2022/03/06 10:17:09;;;;;;;;;49.50;37.75;;;;;9.06;39.46;101790.00;5095892;27;45386;-80
2022/03/06 10:19:55;;;;;;;;;38.00;33.75;;;;;9.24;40.81;101809.59;5102561;27;45423;-76
2022/03/06 10:22:24;;;;;;;;;53.00;38.50;;;;;9.73;40.19;101830.63;5093104;27;45415;-74
2022/03/06 10:24:54;;;;;;;;;48.50;39.00;;;;;10.09;39.76;101818.88;5115421;27;45356;-76
2022/03/06 10:27:42;;;;;;;;;44.00;36.25;;;;;10.98;38.14;101832.59;5115475;27;46122;-71
2022/03/06 10:30:34;;;;;;;;;46.50;36.00;;;;;11.56;34.48;101828.72;5115968;27;45280;-76
2022/03/06 10:33:02;;;;;;;;;47.00;35.00;;;;;11.36;35.26;101774.41;5101084;27;45467;-76
2022/03/06 10:35:32;;;;;;;;;42.00;34.75;;;;;11.32;34.56;101768.03;5095760;27;45481;-75
2022/03/06 10:37:59;;;;;;;;;42.50;34.00;;;;;11.65;34.99;101828.16;5096456;27;45492;-73
2022/03/06 10:40:35;;;;;;;;;38.00;32.25;;;;;11.18;34.64;101762.09;5095967;27;45424;-72
2022/03/06 10:43:00;;;;;;;;;46.25;36.00;;;;;11.51;34.40;101822.25;5095913;27;45398;-74
2022/03/06 10:45:26;;;;;;;;;44.50;34.00;;;;;11.48;35.28;101835.50;5096122;27;45334;-76
2022/03/06 10:47:52;;;;;;;;;39.75;31.50;;;;;11.42;34.69;101829.06;5095659;27;45329;-72
2022/03/06 10:50:22;;;;;;;;;34.00;30.75;;;;;11.29;33.46;101820.50;5097252;27;45230;-80
2022/03/06 10:52:48;;;;;;;;;35.75;30.50;;;;;11.32;33.33;101837.59;5115222;27;45549;-77
2022/03/06 10:55:13;;;;;;;;;42.50;32.00;;;;;11.14;32.76;101810.09;5115353;27;45542;-80
2022/03/06 10:57:40;;;;;;;;;30.75;26.00;;;;;11.21;31.99;101826.44;5115100;27;46402;-81
2022/03/06 11:00:06;;;;;;;;;36.25;29.50;;;;;11.11;32.48;101832.25;5114193;27;45545;-78
2022/03/06 11:02:34;;;;;;;;;28.50;25.50;;;;;10.99;32.45;101813.03;5096985;27;45289;-77
2022/03/06 11:05:01;;;;;;;;;28.25;24.25;;;;;10.73;33.12;101783.44;5116309;27;45348;-80
2022/03/06 11:07:28;;;;;;;;;31.00;24.00;;;;;11.00;32.59;101815.75;5118212;27;45659;-79
2022/03/06 11:09:57;;;;;;;;;27.75;26.00;;;;;10.86;32.65;101809.84;5117912;27;45519;-75
2022/03/06 11:12:23;;;;;;;;;31.50;29.00;;;;;10.87;33.42;101809.00;5117477;27;45394;-80